createdAt,value
2022-08-03T00:04:22.004Z,10.538246
2022-08-03T00:09:36.051Z,10.550174
2022-08-03T00:14:37.547Z,10.721842
2022-08-03T00:19:39.101Z,9.993932
2022-08-03T00:24:40.806Z,10.001598
2022-08-03T00:30:00.127Z,9.908212
2022-08-03T00:35:07.058Z,10.234738
2022-08-03T00:40:10.106Z,10.124852
2022-08-03T00:45:11.641Z,8.227752
2022-08-03T00:50:13.566Z,9.824586
2022-08-03T00:55:15.139Z,9.976998
2022-08-03T01:00:16.827Z,9.625276
2022-08-03T01:05:18.706Z,9.308414
2022-08-03T01:10:20.329Z,9.648384
2022-08-03T01:15:21.857Z,9.975682
2022-08-03T01:20:23.665Z,9.802684
2022-08-03T01:25:25.131Z,8.708058
2022-08-03T01:30:26.665Z,9.668522
2022-08-03T01:35:29.492Z,8.959448
2022-08-03T01:40:31.135Z,9.393576
2022-08-03T01:45:33.980Z,8.507828
2022-08-03T01:50:36.037Z,8.449846
2022-08-03T01:55:37.510Z,8.780548
2022-08-03T02:00:39.074Z,9.061072
2022-08-03T02:05:40.771Z,8.678166
2022-08-03T02:10:42.226Z,8.506784
2022-08-03T02:15:43.753Z,8.467824
2022-08-03T02:20:45.345Z,9.449308
2022-08-03T02:25:46.986Z,9.1539
2022-08-03T02:30:51.890Z,9.70824
2022-08-03T02:35:55.842Z,9.85167
2022-08-03T02:40:57.646Z,10.22414
2022-08-03T02:45:59.094Z,9.634096
2022-08-03T02:51:00.653Z,10.273574
2022-08-03T02:56:02.215Z,10.037912
2022-08-03T03:01:03.802Z,9.297368
2022-08-03T03:06:05.680Z,9.610268
2022-08-03T03:11:07.357Z,9.921404
2022-08-03T03:16:08.827Z,9.83137
2022-08-03T03:21:10.334Z,10.019376
2022-08-03T03:26:11.798Z,8.369852
2022-08-03T03:31:13.266Z,8.33996
2022-08-03T03:36:14.954Z,9.04286
2022-08-03T03:41:16.397Z,9.242656
2022-08-03T03:46:17.855Z,9.3488
2022-08-03T03:51:19.298Z,8.445436
2022-08-03T03:56:20.944Z,8.212582
2022-08-03T04:01:22.429Z,7.72594
2022-08-03T04:06:24.131Z,8.8819
2022-08-03T04:11:30.224Z,8.600656
2022-08-03T04:16:33.409Z,8.182456
2022-08-03T04:21:35.026Z,9.128022
2022-08-03T04:26:36.650Z,9.322092
2022-08-03T04:31:38.212Z,9.255004
2022-08-03T04:36:39.877Z,9.166138
2022-08-03T04:42:07.011Z,9.194986
2022-08-03T04:47:10.022Z,9.178052
2022-08-03T04:52:11.691Z,8.999166
2022-08-03T04:57:22.539Z,8.962976
2022-08-03T05:02:25.076Z,9.271452
2022-08-03T05:07:35.575Z,8.04151
2022-08-03T05:12:37.937Z,8.380126
2022-08-03T05:17:39.357Z,8.811484
2022-08-03T05:22:40.975Z,8.498274
2022-08-03T05:27:42.440Z,9.49387
2022-08-03T05:32:44.075Z,9.557306
2022-08-03T05:37:54.386Z,9.12201
2022-08-03T05:42:56.336Z,8.989898
2022-08-03T05:47:57.878Z,9.645252
2022-08-03T05:52:59.620Z,9.70383
2022-08-03T05:58:01.078Z,10.044696
2022-08-03T06:03:02.596Z,10.05015
2022-08-03T06:08:04.630Z,10.11116
2022-08-03T06:13:06.076Z,9.853434
2022-08-03T06:18:07.512Z,10.025388
2022-08-03T06:23:16.025Z,9.999958
2022-08-03T06:28:51.814Z,10.421142
2022-08-03T06:34:34.303Z,10.170024
2022-08-03T06:39:37.260Z,10.21901
2022-08-03T06:44:38.724Z,10.32697
2022-08-03T06:49:40.358Z,10.201194
2022-08-03T06:54:41.840Z,10.009102
2022-08-03T07:00:07.774Z,9.607174
2022-08-03T07:05:12.617Z,10.194858
2022-08-03T07:10:14.412Z,10.643288
2022-08-03T07:15:20.527Z,10.974386
2022-08-03T07:20:55.103Z,10.97615
2022-08-03T07:25:56.828Z,11.206858
2022-08-03T07:30:58.277Z,11.010628
2022-08-03T07:35:59.814Z,11.639794
2022-08-03T07:41:01.565Z,11.478276
2022-08-03T07:46:05.382Z,10.825392
2022-08-03T07:51:06.781Z,10.808782
2022-08-03T07:56:11.258Z,10.894406
2022-08-03T08:01:15.203Z,11.508836
2022-08-03T08:06:16.784Z,11.478276
2022-08-03T08:11:19.016Z,11.612438
2022-08-03T08:16:20.459Z,11.435302
2022-08-03T08:21:22.044Z,11.235544
2022-08-03T08:26:23.634Z,11.12962
2022-08-03T08:31:25.188Z,11.18755
2022-08-03T08:36:26.606Z,10.8485
2022-08-03T08:41:32.346Z,11.413562
2022-08-03T08:46:34.042Z,11.069278
2022-08-03T08:51:54.550Z,9.931664
2022-08-03T08:57:02.422Z,9.34162
2022-08-03T09:02:03.875Z,9.570226
2022-08-03T09:07:19.615Z,9.269974
2022-08-03T09:12:41.143Z,9.535924
2022-08-03T09:17:46.510Z,9.76678
2022-08-03T09:22:52.213Z,10.345058
2022-08-03T09:27:53.870Z,10.401996
2022-08-03T09:32:55.298Z,10.259896
2022-08-03T09:38:12.601Z,10.38479
2022-08-03T09:43:16.042Z,10.795986
2022-08-03T09:48:17.523Z,11.634502
2022-08-03T09:53:19.301Z,12.217938
2022-08-03T09:58:21.144Z,12.651932
2022-08-03T10:03:22.781Z,12.968632
2022-08-03T10:08:24.339Z,12.921586
2022-08-03T10:13:26.288Z,13.050184
2022-08-03T10:18:27.844Z,12.89412
2022-08-03T10:23:33.419Z,12.793936
2022-08-03T10:28:35.624Z,13.593644
2022-08-03T10:33:50.028Z,13.905486
2022-08-03T10:38:53.850Z,13.49274
2022-08-03T10:43:55.611Z,14.950666
2022-08-03T10:48:57.186Z,14.964616
2022-08-03T10:53:58.775Z,13.843608
2022-08-03T10:59:05.334Z,13.38736
2022-08-03T11:04:13.985Z,13.096076
2022-08-03T11:09:18.071Z,12.843032
2022-08-03T11:14:19.737Z,12.972674
2022-08-03T11:19:21.196Z,13.032978
2022-08-03T11:24:22.850Z,12.835256
2022-08-03T11:29:24.407Z,12.730552
2022-08-03T11:34:25.941Z,12.802932
2022-08-03T11:39:27.415Z,12.957504
2022-08-03T11:44:29.050Z,12.993246
2022-08-03T11:49:30.614Z,12.989284
2022-08-03T11:54:32.214Z,13.349758
2022-08-03T11:59:33.797Z,13.186558
2022-08-03T12:04:35.376Z,13.153352
2022-08-03T12:09:36.811Z,13.411636
2022-08-03T12:14:48.982Z,13.001632
2022-08-03T12:19:53.023Z,13.138616
2022-08-03T12:24:54.495Z,12.989556
2022-08-03T12:29:58.349Z,13.217456
2022-08-03T12:35:00.878Z,13.07568
2022-08-03T12:40:07.875Z,12.964288
2022-08-03T12:45:11.984Z,12.95441
2022-08-03T12:50:13.407Z,13.283214
2022-08-03T12:55:15.102Z,13.5436
2022-08-03T13:00:21.644Z,12.841878
2022-08-03T13:05:30.214Z,12.483072
2022-08-03T13:10:31.865Z,12.630478
2022-08-03T13:15:38.541Z,12.53355
2022-08-03T13:20:49.061Z,12.74567
2022-08-03T13:25:55.835Z,12.764368
2022-08-03T13:30:57.653Z,12.843642
2022-08-03T13:35:59.202Z,12.813192
2022-08-03T13:41:00.728Z,12.382888
2022-08-03T13:46:07.091Z,11.939898
2022-08-03T13:51:12.016Z,12.019944
2022-08-03T13:56:24.217Z,11.782952
2022-08-03T14:01:54.075Z,12.648132
2022-08-03T14:06:56.573Z,12.191626
2022-08-03T14:12:07.516Z,11.580658
2022-08-03T14:17:11.002Z,11.84369
2022-08-03T14:22:13.697Z,11.961962
2022-08-03T14:27:15.156Z,11.552134
2022-08-03T14:32:16.907Z,12.07159
2022-08-03T14:37:18.876Z,11.989222
2022-08-03T14:42:20.562Z,12.098226
2022-08-03T14:47:23.133Z,12.255782
2022-08-03T14:52:24.563Z,11.88551
2022-08-03T14:57:26.040Z,12.059228
2022-08-03T15:02:27.634Z,11.462548
2022-08-03T15:07:29.083Z,12.051452
2022-08-03T15:12:30.560Z,11.934062
2022-08-03T15:17:32.932Z,11.659998
2022-08-03T15:22:35.178Z,11.229532
2022-08-03T15:27:36.930Z,11.508616
2022-08-03T15:33:06.889Z,11.252926
2022-08-03T15:38:09.653Z,11.506404
2022-08-03T15:43:11.450Z,11.35813
2022-08-03T15:48:13.127Z,11.470662
2022-08-03T15:53:14.779Z,11.014332
2022-08-03T15:59:04.359Z,11.229694
2022-08-03T16:04:13.276Z,10.903116
2022-08-03T16:09:24.153Z,10.763486
2022-08-03T16:14:52.421Z,11.150368
2022-08-03T16:19:55.403Z,10.88397
2022-08-03T16:24:56.912Z,11.351618
2022-08-03T16:29:58.748Z,10.840724
2022-08-03T16:35:00.292Z,11.004616
2022-08-03T16:40:01.816Z,11.57139
2022-08-03T16:45:03.298Z,10.071332
2022-08-03T16:50:11.919Z,10.884418
2022-08-03T16:55:42.971Z,10.671864
2022-08-03T17:00:50.987Z,10.755276
2022-08-03T17:05:52.900Z,10.483534
2022-08-03T17:10:54.498Z,9.852552
2022-08-03T17:15:57.710Z,10.329954
2022-08-03T17:21:01.684Z,10.866316
2022-08-03T17:26:05.954Z,10.97665
2022-08-03T17:31:23.411Z,10.551056
2022-08-03T17:37:02.154Z,11.039314
2022-08-03T17:42:05.160Z,10.702586
2022-08-03T17:47:41.847Z,11.537412
2022-08-03T17:52:48.219Z,11.087418
2022-08-03T17:58:02.050Z,10.586526
2022-08-03T18:03:04.611Z,10.830412
2022-08-03T18:08:11.180Z,10.861906
2022-08-03T18:13:13.347Z,10.658296
2022-08-03T18:18:15.381Z,10.581668
2022-08-03T18:23:24.832Z,11.011348
2022-08-03T18:28:38.506Z,11.020778
2022-08-03T18:34:16.629Z,11.449142
2022-08-03T18:39:33.508Z,10.6125
2022-08-03T18:44:54.287Z,10.75141
2022-08-03T18:49:58.613Z,10.349372
2022-08-03T18:55:04.544Z,10.456612
2022-08-03T19:00:15.970Z,9.879474
2022-08-03T19:05:17.474Z,10.005574
2022-08-03T19:10:19.393Z,9.909476
2022-08-03T19:15:36.328Z,8.297038
2022-08-03T19:20:38.716Z,8.547422
2022-08-03T19:25:40.603Z,8.155372
2022-08-03T19:30:53.290Z,8.937818
2022-08-03T19:35:56.907Z,8.944044
2022-08-03T19:40:59.683Z,9.141914
2022-08-03T19:46:06.039Z,9.50391
2022-08-03T19:51:12.072Z,8.414428
2022-08-03T19:56:14.559Z,8.988458
2022-08-03T20:01:19.407Z,9.06408
2022-08-03T20:06:23.299Z,8.715996
2022-08-03T20:11:28.887Z,9.223076
2022-08-03T20:16:32.324Z,9.206304
2022-08-03T20:21:33.942Z,9.420784
2022-08-03T20:26:40.209Z,8.676998
2022-08-03T20:31:45.050Z,9.594378
2022-08-03T20:36:46.569Z,7.841156
2022-08-03T20:41:48.163Z,7.791698
2022-08-03T20:46:53.168Z,7.31789
2022-08-03T20:52:02.709Z,7.835988
2022-08-03T20:57:06.936Z,8.522984
2022-08-03T21:03:14.707Z,8.399134
2022-08-03T21:08:17.345Z,7.589742
2022-08-03T21:18:21.412Z,8.893242
2022-08-03T21:23:40.323Z,8.800576
2022-08-03T21:28:51.290Z,7.84558
2022-08-03T21:33:53.843Z,8.473116
2022-08-03T21:38:55.791Z,8.391482
2022-08-03T21:43:58.224Z,8.246288
2022-08-03T21:49:51.881Z,8.362348
2022-08-03T21:55:18.650Z,9.002694
2022-08-03T22:00:23.243Z,8.734694
2022-08-03T22:05:28.841Z,8.72114
2022-08-03T22:10:30.699Z,8.91676
2022-08-03T22:15:32.163Z,8.675682
2022-08-03T22:20:33.699Z,8.320308
2022-08-03T22:25:35.155Z,8.157856
2022-08-03T22:30:37.286Z,7.859978
2022-08-03T22:35:47.247Z,8.763342
2022-08-03T22:40:49.579Z,7.633274
2022-08-03T22:46:09.248Z,7.409688
2022-08-03T22:51:14.109Z,6.673434
2022-08-03T22:56:15.686Z,7.089422
2022-08-03T23:01:17.890Z,7.570486
2022-08-03T23:06:19.640Z,8.063588
2022-08-03T23:11:21.158Z,8.149198
2022-08-03T23:16:28.727Z,7.939414
2022-08-03T23:22:00.259Z,8.462804
2022-08-03T23:27:04.437Z,7.629336
2022-08-03T23:32:06.057Z,8.40752
2022-08-03T23:37:07.510Z,8.623602
2022-08-03T23:42:09.129Z,8.874868
2022-08-03T23:47:10.612Z,8.439572
2022-08-03T23:52:12.147Z,8.331178
2022-08-03T23:57:13.671Z,7.410446
